MAPA DE AEROPUERTO

INFORMACIÓN METAR y TAF

METAR FOR LELN
ADDS - METARS form results

(1647 UTC 17 April 2021)
Data provider http://aviationweather.gov/metar/data/
 
METAR text: LELN 171630Z 17005KT 100V240 9999 FEW040 15/M05 Q1018
Conditions at: LELN (LEON/VIRGEN CAMI, ES) observed 1630 UTC 17 April 2021
Temperature: 15.0°C (59°F)
Dewpoint: -5.0°C (23°F) [RH = 25%]
Pressure (altimeter): 30.06 inches Hg (1018.0 mb)
Winds: from the S (170 degrees) at 6 MPH (5 knots; 2.6 m/s)
Visibility: 6 or more miles (10+ km)
Ceiling: at least 12,000 feet AGL
Clouds: few clouds at 4000 feet AGL
Weather: no significant weather observed at this time

METAR text: LELN 171600Z 19005KT 140V290 9999 FEW040 15/M05 Q1018
Conditions at: LELN (LEON/VIRGEN CAMI, ES) observed 1600 UTC 17 April 2021
Temperature: 15.0°C (59°F)
Dewpoint: -5.0°C (23°F) [RH = 25%]
Pressure (altimeter): 30.06 inches Hg (1018.0 mb)
Winds: from the S (190 degrees) at 6 MPH (5 knots; 2.6 m/s)
Visibility: 6 or more miles (10+ km)
Ceiling: at least 12,000 feet AGL
Clouds: few clouds at 4000 feet AGL
Weather: no significant weather observed at this time

Forecast for: LELN (LEON/VIRGEN CAMI, ES)
Text: TAF LELN 171400Z 1715/1815 VRB05KT CAVOK TX18/1815Z TNM03/1806Z
Forecast period: 1500 UTC 17 April 2021 to 1500 UTC 18 April 2021
Forecast type: FROM: standard forecast or significant change
Winds: variable direction winds at 6 MPH (5 knots; 2.6 m/s)
Visibility: 6 or more miles (10+ km)
Ceiling: unknown
Clouds: missing
Weather: no significant weather forecast for this period